Time;durP1;ratioP1;P1;durP2;ratioP2;P2;SDS_P1;SDS_P2;PMS_P1;PMS_P2;Temp;Humidity;BMP_temperature;BMP_pressure;BME280_temperature;BME280_humidity;BME280_pressure;Samples;Min_cycle;Max_cycle;Signal;HPM_P1;HPM_P2
2022/03/04 00:02:11;;;;;;;14.30;6.05;;;1.70;69.50;;;;;;5055144;28;20044;-70
2022/03/04 00:04:45;;;;;;;11.10;5.95;;;1.70;69.70;;;;;;5057599;28;20040;-68
2022/03/04 00:07:21;;;;;;;14.15;6.40;;;1.70;69.80;;;;;;5056519;28;20057;-70
2022/03/04 00:09:52;;;;;;;16.65;5.95;;;1.60;69.80;;;;;;5052422;28;20049;-72
2022/03/04 00:12:19;;;;;;;16.30;6.35;;;1.60;69.80;;;;;;5054741;28;20052;-70
2022/03/04 00:14:48;;;;;;;11.93;7.07;;;1.60;69.80;;;;;;5052550;28;20057;-70
2022/03/04 00:17:16;;;;;;;16.13;5.57;;;1.50;69.90;;;;;;5051947;28;20190;-70
2022/03/04 00:19:43;;;;;;;13.63;6.10;;;1.60;69.90;;;;;;5054591;28;20052;-72
2022/03/04 00:22:10;;;;;;;16.30;5.80;;;1.50;69.80;;;;;;5052833;28;20048;-70
2022/03/04 00:24:41;;;;;;;15.05;6.63;;;1.50;69.90;;;;;;5052900;28;20047;-71
2022/03/04 00:27:08;;;;;;;16.30;8.13;;;1.40;70.10;;;;;;5057244;28;21384;-69
2022/03/04 00:29:42;;;;;;;15.15;6.05;;;1.40;70.20;;;;;;5053445;28;20122;-70
2022/03/04 00:32:11;;;;;;;13.07;6.65;;;1.40;70.40;;;;;;5051945;28;21046;-70
2022/03/04 00:34:38;;;;;;;14.65;5.60;;;1.40;70.40;;;;;;5052725;28;20797;-69
2022/03/04 00:37:06;;;;;;;10.50;5.50;;;1.40;70.40;;;;;;5052224;28;20048;-71
2022/03/04 00:39:37;;;;;;;11.88;5.50;;;1.40;70.40;;;;;;5053602;28;20257;-70
2022/03/04 00:42:05;;;;;;;15.35;7.38;;;1.40;70.40;;;;;;5054312;28;20041;-71
2022/03/04 00:44:35;;;;;;;13.32;6.55;;;1.40;70.40;;;;;;5050455;28;20044;-70
2022/03/04 00:47:05;;;;;;;13.68;6.32;;;1.30;70.60;;;;;;5052359;28;20517;-71
2022/03/04 00:49:36;;;;;;;11.32;5.60;;;1.40;70.70;;;;;;5052101;28;20052;-70
2022/03/04 00:52:03;;;;;;;;;;;1.30;70.70;;;;;;5052552;28;20052;-70
2022/03/04 00:54:33;;;;;;;12.18;6.45;;;1.40;70.80;;;;;;5067668;28;19928;-70
2022/03/04 00:57:00;;;;;;;11.40;5.72;;;1.30;70.90;;;;;;5052591;28;20044;-70
2022/03/04 00:59:33;;;;;;;15.93;5.88;;;1.20;71.00;;;;;;5053846;28;20048;-71
2022/03/04 01:02:03;;;;;;;14.15;5.53;;;1.30;71.20;;;;;;5052021;28;20049;-71
2022/03/04 01:04:30;;;;;;;11.33;5.77;;;1.20;71.20;;;;;;5054340;28;20048;-71
2022/03/04 01:06:59;;;;;;;13.40;6.22;;;1.20;71.20;;;;;;5054584;28;20619;-71
2022/03/04 01:09:28;;;;;;;17.60;6.00;;;1.20;71.20;;;;;;5051842;28;20449;-71
2022/03/04 01:11:55;;;;;;;16.73;5.90;;;1.20;71.10;;;;;;5068160;28;20544;-69
2022/03/04 01:14:26;;;;;;;10.68;6.18;;;1.20;71.20;;;;;;5073548;28;21040;-71
2022/03/04 01:16:57;;;;;;;14.52;5.82;;;1.10;71.10;;;;;;5074243;28;20501;-70
2022/03/04 01:19:24;;;;;;;13.57;5.85;;;1.10;71.00;;;;;;5070221;28;20041;-70
2022/03/04 01:21:53;;;;;;;14.40;6.05;;;1.10;71.00;;;;;;5046411;28;20048;-72
2022/03/04 01:24:21;;;;;;;18.15;6.95;;;1.10;70.90;;;;;;5052870;28;20048;-70
2022/03/04 01:26:49;;;;;;;16.00;6.22;;;1.10;71.00;;;;;;5049112;28;20667;-71
2022/03/04 01:29:16;;;;;;;13.02;5.93;;;1.10;71.00;;;;;;5051744;28;20737;-70
2022/03/04 01:31:43;;;;;;;12.40;5.28;;;1.10;71.00;;;;;;5052583;28;20383;-70
2022/03/04 01:37:00;;;;;;;11.32;5.97;;;1.00;71.30;;;;;;5055664;28;20052;-71
2022/03/04 01:39:28;;;;;;;17.37;6.67;;;1.00;71.30;;;;;;5051139;28;20058;-70
2022/03/04 01:41:57;;;;;;;15.13;6.20;;;0.90;71.30;;;;;;5050907;28;20043;-70
2022/03/04 01:44:25;;;;;;;11.38;4.78;;;0.90;71.20;;;;;;5051052;28;20044;-70
2022/03/04 01:46:53;;;;;;;14.73;5.95;;;0.90;71.00;;;;;;5051633;28;20136;-72
2022/03/04 01:49:23;;;;;;;14.20;6.45;;;0.90;71.00;;;;;;5052206;28;20072;-70
2022/03/04 01:51:50;;;;;;;11.37;5.37;;;0.80;71.00;;;;;;5052050;28;20142;-71
2022/03/04 01:54:17;;;;;;;10.80;5.15;;;0.90;71.00;;;;;;5052387;28;20125;-71
2022/03/04 01:56:49;;;;;;;;;;;0.90;71.00;;;;;;5049023;28;20064;-70
2022/03/04 01:59:16;;;;;;;13.95;5.15;;;0.90;70.90;;;;;;5052101;28;19928;-69
2022/03/04 02:01:44;;;;;;;12.80;5.43;;;0.90;70.90;;;;;;5051541;28;20135;-71
2022/03/04 02:04:15;;;;;;;13.10;5.43;;;0.90;70.90;;;;;;5056375;28;20581;-72
2022/03/04 02:06:42;;;;;;;13.13;5.97;;;0.90;71.00;;;;;;5051528;28;20410;-70
2022/03/04 02:09:10;;;;;;;10.65;5.72;;;0.90;71.00;;;;;;5050642;28;20700;-71
2022/03/04 02:11:48;;;;;;;;;;;;;;;;;;;;;
2022/03/04 02:14:27;;;;;;;13.20;6.40;;;0.80;71.10;;;;;;5053313;28;20510;-70
2022/03/04 02:16:55;;;;;;;12.05;6.38;;;0.80;71.10;;;;;;5053628;28;20387;-71
2022/03/04 02:19:23;;;;;;;11.35;5.53;;;0.80;71.30;;;;;;5055139;28;20040;-69
2022/03/04 02:21:55;;;;;;;11.75;5.20;;;0.70;71.40;;;;;;5056098;28;20136;-71
2022/03/04 02:24:25;;;;;;;10.73;4.57;;;0.70;71.40;;;;;;5057696;28;20037;-71
2022/03/04 02:26:54;;;;;;;13.73;5.47;;;0.70;71.40;;;;;;5057930;28;20049;-71
2022/03/04 02:29:22;;;;;;;9.85;3.90;;;0.60;71.30;;;;;;5056807;28;20053;-70
2022/03/04 02:31:55;;;;;;;10.65;6.50;;;0.60;71.40;;;;;;5066601;28;20622;-69
2022/03/04 02:34:22;;;;;;;12.32;6.45;;;0.60;71.40;;;;;;5074315;28;20425;-70
2022/03/04 02:36:58;;;;;;;12.55;6.07;;;0.60;71.50;;;;;;5067742;28;20046;-70
2022/03/04 02:39:26;;;;;;;13.40;5.68;;;0.60;71.30;;;;;;5055922;28;20052;-71
2022/03/04 02:41:54;;;;;;;15.38;6.75;;;0.60;71.30;;;;;;5056927;28;20044;-72
2022/03/04 02:44:22;;;;;;;14.40;5.97;;;0.50;71.40;;;;;;5055206;28;20045;-71
2022/03/04 02:46:52;;;;;;;10.00;5.05;;;0.50;71.60;;;;;;5056423;28;20462;-71
2022/03/04 02:49:20;;;;;;;13.82;5.00;;;0.50;71.60;;;;;;5056728;28;20059;-71
2022/03/04 02:51:47;;;;;;;13.75;5.43;;;0.50;71.60;;;;;;5054357;28;20101;-70
2022/03/04 02:54:15;;;;;;;13.02;5.13;;;0.50;71.70;;;;;;5055404;28;20116;-71
2022/03/04 02:56:43;;;;;;;11.00;5.15;;;0.50;71.70;;;;;;5058782;28;20044;-70
2022/03/04 02:59:11;;;;;;;20.48;6.10;;;0.50;71.90;;;;;;5058897;28;20048;-69
2022/03/04 03:01:41;;;;;;;14.43;5.38;;;0.40;71.90;;;;;;5052563;28;20240;-69
2022/03/04 03:04:09;;;;;;;11.10;5.35;;;0.40;71.70;;;;;;5055174;28;20048;-70
2022/03/04 03:06:40;;;;;;;16.52;6.15;;;0.40;71.70;;;;;;5057245;28;20049;-71
2022/03/04 03:09:07;;;;;;;15.70;6.28;;;0.40;71.60;;;;;;5055092;28;20053;-70
2022/03/04 03:11:42;;;;;;;13.15;5.20;;;0.40;71.70;;;;;;5056727;28;20079;-70
2022/03/04 03:14:09;;;;;;;8.52;4.38;;;0.40;71.80;;;;;;5054395;28;20044;-71
2022/03/04 03:16:42;;;;;;;16.08;5.55;;;0.30;71.80;;;;;;5054052;28;20149;-70
2022/03/04 03:19:12;;;;;;;12.35;6.20;;;0.30;71.90;;;;;;5055172;28;20056;-72
2022/03/04 03:21:40;;;;;;;12.43;6.45;;;0.40;72.00;;;;;;5057007;28;20057;-70
2022/03/04 03:24:08;;;;;;;13.80;6.20;;;0.40;71.90;;;;;;5057011;28;20090;-70
2022/03/04 03:26:35;;;;;;;11.48;5.20;;;0.40;72.00;;;;;;5055560;28;20139;-71
2022/03/04 03:29:09;;;;;;;10.38;4.90;;;0.30;72.10;;;;;;5054977;28;20143;-71
2022/03/04 03:31:38;;;;;;;11.15;5.65;;;0.30;72.00;;;;;;5055903;28;20175;-70
2022/03/04 03:34:05;;;;;;;12.23;5.88;;;0.40;72.00;;;;;;5057254;28;20063;-70
2022/03/04 03:36:35;;;;;;;9.55;4.80;;;0.30;72.10;;;;;;5048310;28;20494;-72
2022/03/04 03:39:09;;;;;;;13.77;5.57;;;0.40;72.20;;;;;;5053240;28;20085;-71
2022/03/04 03:41:37;;;;;;;14.60;6.22;;;0.40;72.10;;;;;;5053712;28;20045;-70
2022/03/04 03:44:06;;;;;;;10.18;4.70;;;0.40;72.10;;;;;;5052453;28;20098;-72
2022/03/04 03:46:36;;;;;;;11.70;5.68;;;0.40;72.10;;;;;;5053085;28;20044;-71
2022/03/04 03:49:10;;;;;;;12.77;5.90;;;0.40;72.20;;;;;;5050707;28;20052;-70
2022/03/04 03:51:37;;;;;;;11.20;4.97;;;0.40;72.20;;;;;;5053074;28;20094;-69
2022/03/04 03:54:05;;;;;;;13.25;6.10;;;0.40;72.30;;;;;;5052974;28;20144;-71
2022/03/04 03:56:32;;;;;;;17.20;5.53;;;0.40;72.40;;;;;;5052450;28;20045;-70
2022/03/04 04:02:02;;;;;;;10.15;4.75;;;0.40;72.70;;;;;;5046001;28;20059;-70
2022/03/04 04:04:34;;;;;;;11.18;5.50;;;0.30;72.80;;;;;;5054363;28;20059;-71
2022/03/04 04:07:08;;;;;;;;;;;0.30;72.80;;;;;;5054970;28;20049;-70
2022/03/04 04:09:38;;;;;;;10.80;4.63;;;0.30;72.90;;;;;;5055185;28;20829;-70
2022/03/04 04:12:13;;;;;;;10.93;5.78;;;0.30;72.90;;;;;;5051486;28;20194;-71
2022/03/04 04:14:43;;;;;;;14.65;6.28;;;0.30;72.90;;;;;;5052887;28;20048;-70
2022/03/04 04:17:11;;;;;;;9.63;4.63;;;0.30;72.80;;;;;;5053621;28;20136;-70
2022/03/04 04:19:41;;;;;;;13.23;6.05;;;0.30;72.90;;;;;;5052302;28;20072;-70
2022/03/04 04:22:17;;;;;;;12.63;5.57;;;0.30;72.90;;;;;;5051583;28;20048;-71
2022/03/04 04:24:50;;;;;;;11.88;5.68;;;0.30;73.00;;;;;;5052727;28;20045;-70
2022/03/04 04:27:18;;;;;;;12.02;5.88;;;0.30;73.10;;;;;;5054490;28;20045;-71
2022/03/04 04:29:54;;;;;;;11.57;5.38;;;0.30;73.10;;;;;;5044331;28;21224;-70
2022/03/04 04:32:25;;;;;;;14.15;5.93;;;0.30;73.10;;;;;;5053664;28;20044;-69
2022/03/04 04:34:55;;;;;;;17.65;6.43;;;0.30;73.10;;;;;;5052800;28;20037;-70
2022/03/04 04:37:25;;;;;;;11.15;5.28;;;0.30;73.10;;;;;;5053466;28;20089;-69
2022/03/04 04:39:52;;;;;;;13.00;6.80;;;0.30;73.00;;;;;;5052814;28;20411;-71
2022/03/04 04:42:20;;;;;;;13.05;5.90;;;0.20;73.10;;;;;;5052920;28;20577;-69
2022/03/04 04:44:49;;;;;;;13.88;6.18;;;0.20;73.00;;;;;;5053399;28;20049;-70
2022/03/04 04:47:16;;;;;;;12.15;5.28;;;0.20;73.00;;;;;;5051437;28;20106;-70
2022/03/04 04:49:44;;;;;;;10.82;5.68;;;0.20;73.00;;;;;;5051671;28;20056;-71
2022/03/04 04:52:11;;;;;;;13.02;6.05;;;0.20;73.00;;;;;;5051148;28;20063;-70
2022/03/04 04:54:41;;;;;;;13.68;5.25;;;0.20;73.10;;;;;;5053157;28;20420;-71
2022/03/04 04:57:09;;;;;;;11.97;5.73;;;0.20;73.10;;;;;;5053123;28;20067;-71
2022/03/04 04:59:38;;;;;;;13.10;5.53;;;0.20;73.30;;;;;;5050120;28;20045;-70
2022/03/04 05:02:08;;;;;;;16.10;6.63;;;0.20;73.20;;;;;;5052108;28;20043;-68
2022/03/04 05:04:35;;;;;;;11.82;5.88;;;0.20;73.10;;;;;;5051132;28;20049;-70
2022/03/04 05:07:04;;;;;;;16.10;7.38;;;0.20;73.10;;;;;;5054420;28;20143;-69
2022/03/04 05:09:34;;;;;;;11.98;5.55;;;0.10;73.10;;;;;;5047415;28;20051;-71
2022/03/04 05:12:03;;;;;;;8.77;4.38;;;0.20;73.10;;;;;;5052538;28;20103;-71
2022/03/04 05:14:31;;;;;;;9.75;5.72;;;0.10;73.10;;;;;;5052297;28;20140;-70
2022/03/04 05:16:59;;;;;;;18.77;7.00;;;0.20;73.10;;;;;;5051013;28;20516;-72
2022/03/04 05:19:28;;;;;;;13.75;6.50;;;0.20;73.30;;;;;;5048842;28;20040;-70
2022/03/04 05:21:59;;;;;;;10.32;5.47;;;0.20;73.30;;;;;;5043771;28;20052;-69
2022/03/04 05:24:27;;;;;;;15.23;7.03;;;0.20;73.40;;;;;;5049565;28;20052;-71
2022/03/04 05:26:55;;;;;;;15.10;6.45;;;0.20;73.40;;;;;;5047169;28;20066;-69
2022/03/04 05:29:23;;;;;;;16.15;5.57;;;0.20;73.60;;;;;;5047165;28;20052;-70
2022/03/04 05:31:59;;;;;;;13.30;6.50;;;0.20;73.60;;;;;;5056325;28;20056;-70
2022/03/04 05:34:28;;;;;;;10.65;5.22;;;0.20;73.60;;;;;;5049110;28;20353;-70
2022/03/04 05:36:56;;;;;;;16.83;6.75;;;0.20;73.60;;;;;;5053515;28;20088;-70
2022/03/04 05:39:25;;;;;;;16.05;6.63;;;0.20;73.70;;;;;;5052328;28;20060;-70
2022/03/04 05:41:53;;;;;;;13.70;6.28;;;0.20;73.90;;;;;;5056054;28;20067;-69
2022/03/04 05:44:24;;;;;;;15.30;6.80;;;0.20;73.70;;;;;;5053237;28;20655;-71
2022/03/04 05:46:51;;;;;;;14.33;6.73;;;0.30;74.00;;;;;;5052723;28;20048;-71
2022/03/04 05:49:19;;;;;;;14.40;5.65;;;0.30;74.00;;;;;;5053707;28;20490;-70
2022/03/04 05:51:57;;;;;;;18.90;8.82;;;0.30;74.00;;;;;;5052584;28;20049;-71
2022/03/04 05:54:25;;;;;;;13.10;5.82;;;0.40;74.00;;;;;;5054732;28;20879;-69
2022/03/04 05:56:59;;;;;;;14.25;7.18;;;0.30;74.10;;;;;;5056175;28;20071;-71
2022/03/04 05:59:27;;;;;;;14.73;6.80;;;0.40;74.20;;;;;;5057216;28;20084;-70
2022/03/04 06:01:55;;;;;;;13.60;6.47;;;0.40;74.20;;;;;;5051611;28;20045;-71
2022/03/04 06:04:22;;;;;;;13.80;6.85;;;0.40;74.30;;;;;;5055510;28;20482;-71
2022/03/04 06:06:50;;;;;;;16.42;8.18;;;0.40;74.40;;;;;;5054950;28;20056;-70
2022/03/04 06:09:19;;;;;;;14.65;5.22;;;0.40;74.50;;;;;;5057128;28;20489;-71
2022/03/04 06:11:46;;;;;;;12.13;6.35;;;0.50;74.60;;;;;;5053450;28;20577;-70
2022/03/04 06:14:14;;;;;;;18.15;7.50;;;0.40;74.80;;;;;;5054057;28;20052;-70
2022/03/04 06:16:41;;;;;;;17.98;6.78;;;0.40;75.20;;;;;;5055755;28;20041;-70
2022/03/04 06:19:15;;;;;;;18.75;8.20;;;0.40;75.70;;;;;;5054628;28;20127;-70
2022/03/04 06:21:42;;;;;;;22.38;7.22;;;0.40;75.90;;;;;;5052416;28;20045;-70
2022/03/04 06:24:14;;;;;;;17.92;8.25;;;0.40;76.20;;;;;;5051320;28;21675;-70
2022/03/04 06:26:42;;;;;;;17.48;7.47;;;0.40;76.20;;;;;;5054241;28;20049;-71
2022/03/04 06:29:10;;;;;;;26.88;9.15;;;0.40;76.20;;;;;;5053897;28;20056;-71
2022/03/04 06:31:37;;;;;;;19.58;7.93;;;0.40;76.20;;;;;;5052543;28;20041;-70
2022/03/04 06:34:05;;;;;;;22.52;9.48;;;0.40;76.20;;;;;;5052714;28;20103;-71
2022/03/04 06:36:33;;;;;;;24.92;9.27;;;0.40;76.10;;;;;;5053435;28;20040;-71
2022/03/04 06:39:00;;;;;;;19.40;7.97;;;0.40;76.20;;;;;;5051273;28;20147;-70
2022/03/04 06:41:28;;;;;;;21.50;7.20;;;0.40;76.20;;;;;;5051677;28;20505;-70
2022/03/04 06:43:55;;;;;;;19.88;8.52;;;0.40;76.10;;;;;;5050461;28;20135;-70
2022/03/04 06:46:23;;;;;;;14.13;6.90;;;0.40;76.20;;;;;;5050646;28;20033;-70
2022/03/04 06:48:53;;;;;;;20.60;9.27;;;0.50;76.30;;;;;;5053221;28;20044;-69
2022/03/04 06:51:20;;;;;;;17.02;6.45;;;0.50;76.10;;;;;;5050370;28;20048;-69
2022/03/04 06:53:48;;;;;;;21.83;8.27;;;0.50;76.00;;;;;;5050150;28;20041;-70
2022/03/04 06:56:17;;;;;;;19.77;8.75;;;0.50;76.00;;;;;;5047622;28;20045;-71
2022/03/04 06:58:48;;;;;;;18.30;7.70;;;0.50;76.10;;;;;;5050091;28;20055;-72
2022/03/04 07:01:16;;;;;;;17.77;7.32;;;0.50;76.20;;;;;;5043065;28;20159;-70
2022/03/04 07:03:43;;;;;;;25.10;9.05;;;0.50;76.30;;;;;;5055805;28;20037;-71
2022/03/04 07:06:14;;;;;;;25.35;8.93;;;0.60;76.40;;;;;;5065358;28;20055;-70
2022/03/04 07:08:44;;;;;;;20.17;7.80;;;0.70;76.30;;;;;;5063499;28;20070;-70
2022/03/04 07:11:13;;;;;;;19.73;8.63;;;0.70;76.20;;;;;;5048030;28;20122;-70
2022/03/04 07:13:51;;;;;;;20.53;8.03;;;0.70;76.30;;;;;;5050215;28;20052;-70
2022/03/04 07:16:24;;;;;;;16.42;7.07;;;0.70;76.50;;;;;;5046456;28;20051;-69
2022/03/04 07:18:55;;;;;;;21.92;9.50;;;0.80;76.50;;;;;;5054445;28;20037;-71
2022/03/04 07:24:21;;;;;;;16.23;8.18;;;0.80;76.80;;;;;;5051888;28;20119;-69
2022/03/04 07:27:05;;;;;;;17.75;8.70;;;0.80;77.10;;;;;;5053696;28;20076;-70
2022/03/04 07:29:42;;;;;;;23.15;9.23;;;0.80;77.30;;;;;;5050641;28;20043;-69
2022/03/04 07:32:14;;;;;;;20.05;10.30;;;0.90;77.20;;;;;;5049312;28;20498;-70
2022/03/04 07:34:57;;;;;;;20.23;8.82;;;0.90;77.40;;;;;;5049875;28;20049;-71
2022/03/04 07:37:24;;;;;;;22.10;9.50;;;1.00;77.40;;;;;;5045484;28;20048;-71
2022/03/04 07:39:52;;;;;;;19.80;8.70;;;1.10;77.50;;;;;;5043459;28;20063;-71
2022/03/04 07:42:20;;;;;;;21.23;8.40;;;1.10;77.70;;;;;;5044103;28;20490;-70
2022/03/04 07:44:47;;;;;;;24.88;9.18;;;1.10;77.70;;;;;;5045745;28;20084;-70
2022/03/04 07:47:16;;;;;;;19.95;9.25;;;1.10;77.80;;;;;;5045068;28;20051;-70
2022/03/04 07:49:46;;;;;;;23.23;10.65;;;1.10;77.80;;;;;;5045415;28;20042;-70
2022/03/04 07:52:14;;;;;;;23.02;9.32;;;1.10;77.80;;;;;;5046411;28;20060;-70
2022/03/04 07:54:41;;;;;;;22.33;10.52;;;1.20;77.70;;;;;;5051383;28;20048;-71
2022/03/04 07:57:09;;;;;;;27.30;10.02;;;1.20;77.80;;;;;;5050850;28;20072;-70
2022/03/04 07:59:38;;;;;;;21.63;9.73;;;1.30;77.60;;;;;;5050107;28;20045;-70
2022/03/04 08:02:06;;;;;;;16.70;8.57;;;1.30;77.50;;;;;;5043912;28;20061;-69
2022/03/04 08:04:37;;;;;;;25.23;9.65;;;1.30;77.60;;;;;;5047673;28;20057;-70
2022/03/04 08:07:05;;;;;;;15.60;8.48;;;1.30;77.60;;;;;;5044992;28;20049;-71
2022/03/04 08:09:32;;;;;;;26.90;10.77;;;1.40;77.40;;;;;;5044405;28;20082;-70
2022/03/04 08:11:59;;;;;;;18.67;8.07;;;1.50;77.30;;;;;;5043498;28;20041;-70
2022/03/04 08:14:26;;;;;;;22.88;9.57;;;1.40;77.40;;;;;;5043452;28;20057;-69
2022/03/04 08:16:54;;;;;;;22.67;10.07;;;1.50;77.40;;;;;;5047378;28;20386;-71
2022/03/04 08:19:24;;;;;;;21.35;9.25;;;1.60;77.40;;;;;;5042921;28;20119;-70
2022/03/04 08:21:53;;;;;;;19.23;9.85;;;1.60;77.30;;;;;;5045226;28;20049;-71
2022/03/04 08:24:20;;;;;;;26.02;11.57;;;1.70;77.10;;;;;;5046003;28;20049;-71
2022/03/04 08:26:51;;;;;;;19.67;7.72;;;1.70;77.40;;;;;;5044837;28;20135;-70
2022/03/04 08:29:24;;;;;;;25.55;11.32;;;1.70;77.70;;;;;;5045513;28;20053;-72
2022/03/04 08:31:51;;;;;;;27.75;10.55;;;1.70;77.40;;;;;;5044458;28;20079;-71
2022/03/04 08:34:19;;;;;;;23.38;11.40;;;1.80;77.10;;;;;;5044595;28;20045;-70
2022/03/04 08:36:49;;;;;;;26.95;9.50;;;1.80;77.20;;;;;;5044745;28;20053;-69
2022/03/04 08:39:18;;;;;;;23.42;9.82;;;1.90;77.40;;;;;;5044543;28;20064;-72
2022/03/04 08:41:48;;;;;;;20.08;10.20;;;2.00;77.30;;;;;;5041637;28;20041;-72
2022/03/04 08:44:16;;;;;;;25.88;10.68;;;2.00;77.30;;;;;;5046019;28;20045;-72
2022/03/04 08:46:43;;;;;;;26.77;11.13;;;2.10;77.10;;;;;;5048672;28;20499;-70
2022/03/04 08:49:19;;;;;;;24.27;9.73;;;2.20;77.10;;;;;;5048558;28;20103;-70
2022/03/04 08:51:53;;;;;;;24.38;10.27;;;2.20;77.00;;;;;;5048254;28;20678;-71
2022/03/04 08:54:31;;;;;;;26.55;9.95;;;2.30;77.00;;;;;;5052133;28;20051;-70
2022/03/04 08:59:48;;;;;;;18.42;9.38;;;2.40;76.80;;;;;;5035209;28;20344;-69
2022/03/04 09:02:20;;;;;;;18.83;8.18;;;2.50;76.30;;;;;;5047638;28;20059;-69
2022/03/04 09:04:49;;;;;;;22.27;10.27;;;2.60;76.40;;;;;;5047058;28;20056;-70
2022/03/04 09:07:16;;;;;;;26.17;9.77;;;2.70;76.50;;;;;;5049983;28;20060;-69
2022/03/04 09:09:47;;;;;;;24.90;11.95;;;2.70;76.10;;;;;;5044557;28;20114;-73
2022/03/04 09:12:24;;;;;;;23.90;11.57;;;2.80;76.30;;;;;;5045999;28;20048;-71
2022/03/04 09:15:04;;;;;;;26.35;10.23;;;2.90;76.00;;;;;;5047282;28;20195;-70
2022/03/04 09:17:35;;;;;;;28.67;10.25;;;2.90;75.50;;;;;;5047385;28;20055;-70
2022/03/04 09:20:03;;;;;;;22.10;9.52;;;3.00;75.30;;;;;;5046510;28;20142;-71
2022/03/04 09:22:30;;;;;;;23.40;9.25;;;3.10;75.00;;;;;;5051922;28;20048;-72
2022/03/04 09:24:59;;;;;;;18.52;9.32;;;3.20;74.80;;;;;;5044926;28;20593;-71
2022/03/04 09:27:28;;;;;;;19.95;9.80;;;3.20;74.40;;;;;;5050802;28;20048;-70
2022/03/04 09:30:02;;;;;;;22.85;9.45;;;3.30;74.50;;;;;;5035536;28;20147;-70
2022/03/04 09:32:43;;;;;;;22.17;11.43;;;3.40;74.00;;;;;;5044041;28;20048;-70
2022/03/04 09:35:12;;;;;;;24.20;10.05;;;3.40;73.90;;;;;;5050116;28;20056;-70
2022/03/04 09:37:41;;;;;;;21.05;10.35;;;3.50;73.10;;;;;;5051886;28;20071;-70
2022/03/04 09:40:17;;;;;;;23.08;9.80;;;3.60;73.20;;;;;;5048145;28;20052;-70
2022/03/04 09:42:44;;;;;;;21.38;10.73;;;3.70;72.90;;;;;;5047850;28;20045;-70
2022/03/04 09:45:14;;;;;;;21.23;8.77;;;3.70;73.10;;;;;;5046753;28;20052;-72
2022/03/04 09:47:43;;;;;;;21.27;11.27;;;3.80;72.70;;;;;;5045737;28;20044;-71
2022/03/04 09:50:17;;;;;;;22.88;10.48;;;3.90;72.10;;;;;;5052715;28;20059;-70
2022/03/04 09:52:46;;;;;;;23.25;9.75;;;3.90;71.90;;;;;;5049188;28;20044;-70
2022/03/04 09:55:17;;;;;;;21.55;10.15;;;4.00;72.20;;;;;;5048931;28;20147;-71
2022/03/04 09:57:44;;;;;;;24.17;11.27;;;4.10;72.00;;;;;;5049818;28;20119;-71
2022/03/04 10:00:13;;;;;;;21.90;10.75;;;4.20;71.60;;;;;;5043242;28;20051;-70
2022/03/04 10:02:41;;;;;;;22.75;9.95;;;4.20;71.40;;;;;;5043684;28;20267;-69
2022/03/04 10:05:10;;;;;;;25.45;9.85;;;4.20;71.70;;;;;;5058461;28;20064;-71
2022/03/04 10:07:42;;;;;;;25.17;11.10;;;4.30;70.40;;;;;;5045565;28;20061;-71
2022/03/04 10:10:16;;;;;;;22.30;9.55;;;4.40;70.60;;;;;;5043456;28;20435;-72
2022/03/04 10:12:50;;;;;;;21.77;8.93;;;4.40;70.50;;;;;;5044975;28;20132;-73
2022/03/04 10:15:20;;;;;;;25.10;10.50;;;4.50;70.00;;;;;;5045928;28;20486;-70
2022/03/04 10:17:58;;;;;;;20.15;8.77;;;4.50;69.80;;;;;;5041652;28;20056;-70
2022/03/04 10:20:37;;;;;;;22.92;10.02;;;4.50;70.40;;;;;;5043151;28;20051;-72
2022/03/04 10:23:16;;;;;;;21.45;9.75;;;4.60;69.50;;;;;;5044980;28;20138;-71
2022/03/04 10:25:49;;;;;;;21.23;10.25;;;4.60;69.50;;;;;;5044575;28;20060;-70
2022/03/04 10:28:28;;;;;;;23.63;9.32;;;4.70;69.50;;;;;;5044254;28;20076;-70
2022/03/04 10:30:59;;;;;;;18.90;9.43;;;4.70;69.30;;;;;;5044572;28;20461;-70
2022/03/04 10:33:28;;;;;;;22.35;10.20;;;4.70;69.50;;;;;;5046467;28;20072;-71
2022/03/04 10:36:11;;;;;;;23.90;10.32;;;4.80;69.60;;;;;;5043705;28;20081;-71
2022/03/04 10:38:41;;;;;;;26.17;11.25;;;4.90;69.30;;;;;;5041785;28;20044;-70
2022/03/04 10:41:24;;;;;;;20.40;8.80;;;4.90;69.00;;;;;;5048656;28;20083;-70
2022/03/04 10:43:56;;;;;;;22.20;10.25;;;5.00;68.90;;;;;;5045920;28;20064;-71
2022/03/04 10:49:09;;;;;;;29.85;10.38;;;5.10;68.40;;;;;;5045539;28;20112;-74
2022/03/04 10:51:39;;;;;;;21.45;10.45;;;5.10;68.40;;;;;;5044890;28;20056;-71
2022/03/04 10:54:14;;;;;;;21.98;9.50;;;5.20;68.70;;;;;;5050459;28;20121;-71
2022/03/04 10:56:55;;;;;;;22.27;10.68;;;5.20;68.20;;;;;;5049688;28;20055;-71
2022/03/04 10:59:23;;;;;;;20.85;10.50;;;5.20;68.00;;;;;;5052101;28;20051;-69
2022/03/04 11:01:54;;;;;;;23.13;9.98;;;5.30;67.60;;;;;;5048174;28;20045;-70
2022/03/04 11:04:27;;;;;;;21.25;10.40;;;5.30;67.70;;;;;;5052800;28;20644;-71
2022/03/04 11:06:57;;;;;;;19.02;9.98;;;5.40;67.70;;;;;;5049985;28;20131;-71
2022/03/04 11:09:26;;;;;;;22.85;11.02;;;5.40;67.40;;;;;;5045326;28;20041;-70
2022/03/04 11:11:59;;;;;;;23.48;10.98;;;5.40;67.30;;;;;;5046989;28;20048;-71
2022/03/04 11:14:30;;;;;;;20.35;10.68;;;5.50;66.90;;;;;;5048265;28;21022;-71
2022/03/04 11:16:58;;;;;;;23.90;10.75;;;5.50;66.80;;;;;;5048361;28;20048;-72
2022/03/04 11:19:36;;;;;;;22.58;11.27;;;5.60;66.70;;;;;;5044601;28;20049;-70
2022/03/04 11:22:04;;;;;;;23.88;10.05;;;5.60;66.20;;;;;;5045939;28;20181;-71
2022/03/04 11:24:41;;;;;;;21.55;9.65;;;5.70;65.90;;;;;;5045674;28;21634;-70
2022/03/04 11:27:11;;;;;;;22.15;9.70;;;5.70;65.70;;;;;;5050321;28;20098;-70
2022/03/04 11:29:48;;;;;;;29.25;11.38;;;5.70;65.60;;;;;;5048242;28;20589;-71
2022/03/04 11:32:16;;;;;;;22.08;10.35;;;5.70;65.50;;;;;;5051905;28;20139;-71
2022/03/04 11:34:46;;;;;;;23.65;10.68;;;5.70;65.60;;;;;;5051955;28;20067;-71
2022/03/04 11:40:06;;;;;;;24.33;9.82;;;5.80;65.70;;;;;;5044393;28;20567;-70
2022/03/04 11:42:37;;;;;;;;;;;5.90;65.30;;;;;;5051598;28;20105;-72
2022/03/04 11:45:08;;;;;;;20.15;9.32;;;5.90;65.10;;;;;;5042669;28;19928;-72
2022/03/04 11:47:41;;;;;;;22.88;9.65;;;5.90;64.80;;;;;;5043781;28;20045;-70
2022/03/04 11:50:37;;;;;;;21.20;9.50;;;6.00;64.70;;;;;;5044500;28;20036;-70
2022/03/04 11:53:15;;;;;;;19.30;9.20;;;6.00;64.60;;;;;;4999997;28;20714;-69
2022/03/04 11:56:11;;;;;;;25.58;10.02;;;6.00;64.50;;;;;;5044777;28;20703;-71
2022/03/04 11:59:14;;;;;;;21.38;10.40;;;6.10;64.60;;;;;;5044086;28;20055;-70
2022/03/04 12:01:47;;;;;;;22.83;9.90;;;6.10;64.30;;;;;;5025389;28;20124;-69
2022/03/04 12:04:17;;;;;;;21.15;9.68;;;6.10;64.00;;;;;;5050490;28;20406;-70
2022/03/04 12:07:07;;;;;;;21.63;11.02;;;6.10;63.40;;;;;;5044651;28;20043;-72
2022/03/04 12:09:35;;;;;;;25.05;9.68;;;6.10;63.50;;;;;;5045754;28;20049;-71
2022/03/04 12:12:18;;;;;;;25.95;10.30;;;6.10;63.40;;;;;;5052299;28;20061;-70
2022/03/04 12:14:53;;;;;;;22.23;9.65;;;6.10;63.00;;;;;;5048526;28;20048;-70
2022/03/04 12:17:54;;;;;;;20.50;10.38;;;6.10;62.90;;;;;;5048836;28;20384;-70
2022/03/04 12:20:28;;;;;;;21.80;9.60;;;6.10;62.80;;;;;;5049106;28;20068;-70
2022/03/04 12:23:16;;;;;;;20.65;9.70;;;6.20;62.70;;;;;;5043605;28;20473;-69
2022/03/04 12:26:24;;;;;;;23.38;9.48;;;6.20;62.30;;;;;;5044690;28;20045;-70
2022/03/04 12:29:03;;;;;;;27.27;11.90;;;6.20;62.40;;;;;;5041879;28;20049;-70
2022/03/04 12:31:38;;;;;;;25.17;10.88;;;6.20;61.70;;;;;;5046284;28;20047;-70
2022/03/04 12:34:16;;;;;;;26.80;10.95;;;6.20;62.10;;;;;;5044375;28;20047;-70
2022/03/04 12:36:43;;;;;;;25.08;10.43;;;6.20;62.00;;;;;;5045371;28;20178;-71
2022/03/04 12:39:11;;;;;;;27.58;12.25;;;6.20;62.00;;;;;;5042866;28;20059;-71
2022/03/04 12:41:42;;;;;;;26.70;10.38;;;6.20;62.20;;;;;;5045572;28;20132;-70
2022/03/04 12:44:12;;;;;;;28.48;10.30;;;6.20;62.30;;;;;;5055307;28;20060;-73
2022/03/04 12:46:44;;;;;;;23.92;10.63;;;6.20;62.40;;;;;;5052460;28;20448;-69
2022/03/04 12:49:16;;;;;;;21.55;9.68;;;6.20;62.40;;;;;;5047255;28;20498;-70
2022/03/04 12:51:45;;;;;;;22.48;9.02;;;6.20;62.50;;;;;;5053491;28;20047;-71
2022/03/04 12:54:17;;;;;;;20.83;9.43;;;6.20;62.50;;;;;;5051236;28;20142;-70
2022/03/04 12:56:51;;;;;;;20.92;9.02;;;6.20;62.70;;;;;;5046264;28;20068;-70
2022/03/04 12:59:20;;;;;;;20.20;8.45;;;6.20;62.40;;;;;;5044674;28;20134;-70
2022/03/04 13:01:50;;;;;;;23.48;9.65;;;6.20;62.00;;;;;;5049083;28;20485;-71
2022/03/04 13:04:19;;;;;;;21.73;10.85;;;6.20;62.10;;;;;;5056088;28;20926;-71
2022/03/04 13:06:56;;;;;;;20.60;9.93;;;6.30;62.00;;;;;;5043294;28;20436;-71
2022/03/04 13:09:24;;;;;;;21.80;8.65;;;6.30;62.20;;;;;;5045056;28;20036;-71
2022/03/04 13:11:52;;;;;;;19.67;8.77;;;6.30;62.00;;;;;;5050530;28;20584;-72
2022/03/04 13:14:22;;;;;;;21.38;10.30;;;6.30;61.70;;;;;;5049434;28;20047;-70
2022/03/04 13:16:51;;;;;;;22.23;9.02;;;6.30;61.90;;;;;;5049344;28;20167;-70
2022/03/04 13:19:25;;;;;;;20.40;9.33;;;6.30;61.90;;;;;;5048498;28;20051;-71
2022/03/04 13:22:00;;;;;;;17.52;8.32;;;6.30;61.90;;;;;;5049297;28;20048;-71
2022/03/04 13:24:29;;;;;;;15.43;7.82;;;6.30;61.90;;;;;;5050222;28;20308;-72